Time;durP1;ratioP1;P1;durP2;ratioP2;P2;SDS_P1;SDS_P2;PMS_P1;PMS_P2;Temp;Humidity;BMP_temperature;BMP_pressure;BME280_temperature;BME280_humidity;BME280_pressure;Samples;Min_cycle;Max_cycle;Signal;HPM_P1;HPM_P2
2022/11/10 00:00:08;;;;;;;;;;;6.20;99.90;;;;;;5056878;28;19919;-71
2022/11/10 00:02:33;;;;;;;;;;;6.20;99.90;;;;;;5056732;28;19916;-71
2022/11/10 00:04:59;;;;;;;;;;;6.20;99.90;;;;;;5056501;28;19928;-71
2022/11/10 00:07:25;;;;;;;;;;;6.20;99.90;;;;;;5056729;28;19916;-71
2022/11/10 00:09:53;;;;;;;;;;;6.10;99.90;;;;;;5056370;28;20444;-71
2022/11/10 00:12:22;;;;;;;;;;;6.20;99.90;;;;;;5056193;28;19917;-71
2022/11/10 00:17:34;;;;;;;;;;;6.10;99.90;;;;;;5056909;28;19955;-71
2022/11/10 00:19:59;;;;;;;;;;;6.10;99.90;;;;;;5056270;28;19913;-71
2022/11/10 00:22:25;;;;;;;;;;;6.10;99.90;;;;;;5056068;28;20012;-71
2022/11/10 00:24:50;;;;;;;;;;;6.20;99.90;;;;;;5056412;28;19920;-71
2022/11/10 00:27:16;;;;;;;;;;;6.20;99.90;;;;;;5056001;28;19913;-71
2022/11/10 00:29:42;;;;;;;;;;;6.10;99.90;;;;;;5056417;28;19948;-71
2022/11/10 00:32:08;;;;;;;;;;;6.10;99.90;;;;;;5056064;28;20027;-71
2022/11/10 00:34:33;;;;;;;;;;;6.10;99.90;;;;;;5055884;28;19913;-71
2022/11/10 00:36:59;;;;;;;;;;;6.10;99.90;;;;;;5056227;28;19913;-71
2022/11/10 00:39:24;;;;;;;;;;;6.20;99.90;;;;;;5055870;28;19919;-71
2022/11/10 00:41:50;;;;;;;;;;;6.10;99.90;;;;;;5055773;28;20315;-71
2022/11/10 00:44:15;;;;;;;;;;;6.10;99.90;;;;;;5055683;28;19909;-71
2022/11/10 00:46:41;;;;;;;;;;;6.10;99.90;;;;;;5055767;28;20003;-71
2022/11/10 00:49:07;;;;;;;;;;;6.00;99.90;;;;;;5055531;28;19917;-71
2022/11/10 00:51:32;;;;;;;;;;;6.10;99.90;;;;;;5055964;28;20040;-71
2022/11/10 00:53:58;;;;;;;;;;;6.10;99.90;;;;;;5055532;28;19909;-71
2022/11/10 00:56:24;;;;;;;;;;;6.00;99.90;;;;;;5054552;28;19916;-71
2022/11/10 00:58:49;;;;;;;;;;;6.00;99.90;;;;;;5055455;28;20270;-71
2022/11/10 01:01:16;;;;;;;;;;;6.00;99.90;;;;;;5056048;28;19961;-71
2022/11/10 01:03:41;;;;;;;;;;;6.10;99.90;;;;;;5055623;28;19913;-71
2022/11/10 01:06:12;;;;;;;;;;;6.00;99.90;;;;;;5055329;28;19915;-71
2022/11/10 01:08:38;;;;;;;;;;;6.10;99.90;;;;;;5055509;28;19952;-71
2022/11/10 01:11:06;;;;;;;;;;;6.00;99.90;;;;;;5055237;28;19920;-71
2022/11/10 01:13:32;;;;;;;;;;;6.10;99.90;;;;;;5055069;28;19927;-71
2022/11/10 01:16:02;;;;;;;;;;;6.10;99.90;;;;;;5055633;28;19913;-71
2022/11/10 01:18:27;;;;;;;;;;;6.10;99.90;;;;;;5055606;28;19916;-71
2022/11/10 01:20:53;;;;;;;;;;;6.10;99.90;;;;;;5055655;28;19917;-71
2022/11/10 01:23:18;;;;;;;;;;;6.10;99.90;;;;;;5037055;28;19913;-71
2022/11/10 01:25:44;;;;;;;;;;;6.10;99.90;;;;;;5055230;28;20004;-71
2022/11/10 01:28:10;;;;;;;;;;;6.20;99.90;;;;;;5054896;28;19913;-71
2022/11/10 01:30:35;;;;;;;;;;;6.20;99.90;;;;;;5055155;28;20449;-71
2022/11/10 01:33:01;;;;;;;;;;;6.20;99.90;;;;;;5055024;28;20373;-71
2022/11/10 01:35:26;;;;;;;;;;;6.20;99.90;;;;;;5037037;28;19913;-71
2022/11/10 01:37:52;;;;;;;;;;;6.20;99.90;;;;;;5054741;28;20011;-71
2022/11/10 01:40:17;;;;;;;;;;;6.20;99.90;;;;;;5054772;28;19959;-71
2022/11/10 01:42:47;;;;;;;;;;;6.20;99.90;;;;;;5054911;28;19920;-71
2022/11/10 01:45:33;;;;;;;;;;;6.20;99.90;;;;;;5054613;28;19959;-71
2022/11/10 01:48:01;;;;;;;;;;;6.20;99.90;;;;;;5040345;28;19935;-70
2022/11/10 01:50:36;;;;;;;;;;;6.20;99.90;;;;;;5054821;28;19971;-70
2022/11/10 01:53:03;;;;;;;;;;;6.20;99.90;;;;;;5054409;28;19908;-70
2022/11/10 01:55:29;;;;;;;;;;;6.10;99.90;;;;;;5054410;28;19916;-70
2022/11/10 01:57:55;;;;;;;;;;;6.10;99.90;;;;;;5054398;28;19996;-70
2022/11/10 02:00:21;;;;;;;;;;;6.20;99.90;;;;;;5054646;28;20369;-70
2022/11/10 02:02:57;;;;;;;;;;;6.10;99.90;;;;;;5036297;28;19913;-70
2022/11/10 02:05:24;;;;;;;;;;;6.20;99.90;;;;;;5054500;28;19954;-70
2022/11/10 02:07:50;;;;;;;;;;;6.10;99.90;;;;;;5054064;28;19916;-70
2022/11/10 02:10:17;;;;;;;;;;;6.10;99.90;;;;;;5054485;28;19916;-70
2022/11/10 02:12:43;;;;;;;;;;;6.10;99.90;;;;;;5053857;28;20282;-70
2022/11/10 02:15:11;;;;;;;;;;;6.20;99.90;;;;;;5054143;28;19912;-70
2022/11/10 02:17:36;;;;;;;;;;;6.10;99.90;;;;;;5054458;28;19909;-70
2022/11/10 02:20:05;;;;;;;;;;;6.10;99.90;;;;;;5054116;28;19996;-70
2022/11/10 02:22:31;;;;;;;;;;;6.10;99.90;;;;;;5053815;28;19915;-70
2022/11/10 02:24:57;;;;;;;;;;;6.10;99.90;;;;;;5054145;28;20004;-69
2022/11/10 02:27:22;;;;;;;;;;;6.10;99.90;;;;;;5053819;28;19913;-69
2022/11/10 02:29:48;;;;;;;;;;;6.10;99.90;;;;;;5053878;28;19990;-69
2022/11/10 02:32:13;;;;;;;;;;;6.10;99.90;;;;;;5054233;28;19916;-69
2022/11/10 02:34:39;;;;;;;;;;;6.10;99.90;;;;;;5054885;28;19971;-69
2022/11/10 02:37:05;;;;;;;;;;;6.10;99.90;;;;;;5053865;28;19953;-69
2022/11/10 02:39:30;;;;;;;;;;;6.10;99.90;;;;;;5053778;28;19916;-69
2022/11/10 02:41:56;;;;;;;;;;;6.20;99.90;;;;;;5053792;28;19935;-69
2022/11/10 02:44:21;;;;;;;;;;;6.10;99.90;;;;;;5053582;28;20285;-69
2022/11/10 02:46:47;;;;;;;;;;;6.10;99.90;;;;;;5053664;28;20292;-69
2022/11/10 02:49:12;;;;;;;;;;;6.10;99.90;;;;;;5053736;28;19952;-69
2022/11/10 02:51:38;;;;;;;;;;;6.10;99.90;;;;;;5053545;28;19913;-68
2022/11/10 02:54:05;;;;;;;;;;;6.10;99.90;;;;;;5053511;28;19923;-69
2022/11/10 02:56:30;;;;;;;;;;;6.10;99.90;;;;;;5053507;28;19912;-69
2022/11/10 02:58:56;;;;;;;;;;;6.10;99.90;;;;;;5053485;28;20288;-69
2022/11/10 03:01:22;;;;;;;;;;;6.10;99.90;;;;;;5054138;28;19913;-69
2022/11/10 03:03:47;;;;;;;;;;;6.10;99.90;;;;;;5053588;28;19917;-69
2022/11/10 03:06:13;;;;;;;;;;;6.10;99.90;;;;;;5053701;28;19991;-69
2022/11/10 03:08:38;;;;;;;;;;;6.10;99.90;;;;;;5053266;28;19920;-69
2022/11/10 03:11:04;;;;;;;;;;;6.10;99.90;;;;;;5053691;28;19913;-69
2022/11/10 03:13:29;;;;;;;;;;;6.10;99.90;;;;;;5053298;28;19920;-69
2022/11/10 03:15:55;;;;;;;;;;;6.10;99.90;;;;;;5053381;28;19913;-68
2022/11/10 03:18:21;;;;;;;;;;;6.10;99.90;;;;;;5053964;28;19920;-68
2022/11/10 03:20:48;;;;;;;;;;;6.10;99.90;;;;;;5057690;28;19909;-69
2022/11/10 03:23:14;;;;;;;;;;;6.20;99.90;;;;;;5057357;28;20327;-69
2022/11/10 03:25:40;;;;;;;;;;;6.10;99.90;;;;;;5057743;28;19952;-69
2022/11/10 03:28:05;;;;;;;;;;;6.10;99.90;;;;;;5039701;28;19964;-69
2022/11/10 03:30:31;;;;;;;;;;;6.00;99.90;;;;;;5057529;28;19913;-69
2022/11/10 03:32:56;;;;;;;;;;;6.00;99.90;;;;;;5057118;28;20012;-68
2022/11/10 03:35:22;;;;;;;;;;;6.00;99.90;;;;;;5039280;28;19913;-69
2022/11/10 03:37:47;;;;;;;;;;;6.10;99.90;;;;;;5057128;28;19955;-69
2022/11/10 03:40:13;;;;;;;;;;;6.10;99.90;;;;;;5057346;28;19924;-69
2022/11/10 03:42:42;;;;;;;;;;;6.10;99.90;;;;;;5057181;28;20369;-68
2022/11/10 03:45:09;;;;;;;;;;;6.10;99.90;;;;;;5056820;28;19947;-69
2022/11/10 03:47:34;;;;;;;;;;;6.10;99.90;;;;;;5056884;28;20007;-69
2022/11/10 03:50:00;;;;;;;;;;;6.10;99.90;;;;;;5057178;28;19952;-69
2022/11/10 03:52:25;;;;;;;;;;;6.20;99.90;;;;;;5057616;28;19913;-69
2022/11/10 03:54:51;;;;;;;;;;;6.20;99.90;;;;;;5057100;28;19913;-69
2022/11/10 03:57:16;;;;;;;;;;;6.20;99.90;;;;;;5056817;28;19919;-69
2022/11/10 03:59:42;;;;;;;;;;;6.10;99.90;;;;;;5056935;28;20004;-69
2022/11/10 04:02:07;;;;;;;;;;;6.10;99.90;;;;;;5057014;28;19994;-69
2022/11/10 04:10:01;;;;;;;;;;;6.20;99.90;;;;;;5057117;28;20043;-69
2022/11/10 04:18:19;;;;;;;;;;;6.20;99.90;;;;;;5056952;28;19935;-69
2022/11/10 04:20:40;;;;;;;;;;;6.20;99.90;;;;;;5056449;28;19916;-69
2022/11/10 04:28:34;;;;;;;;;;;6.20;99.90;;;;;;5056250;28;19943;-69
2022/11/10 04:30:59;;;;;;;;;;;6.20;99.90;;;;;;5056149;28;19913;-69
2022/11/10 04:33:25;;;;;;;;;;;6.20;99.90;;;;;;5056028;28;19913;-69
2022/11/10 04:35:51;;;;;;;;;;;6.20;99.90;;;;;;5056314;28;19920;-69
2022/11/10 04:38:16;;;;;;;;;;;6.20;99.90;;;;;;5055988;28;19966;-69
2022/11/10 04:40:42;;;;;;;;;;;6.20;99.90;;;;;;5055984;28;19913;-69
2022/11/10 04:43:07;;;;;;;;;;;6.20;99.90;;;;;;5056022;28;19909;-69
2022/11/10 04:45:33;;;;;;;;;;;6.20;99.90;;;;;;5055835;28;19916;-69
2022/11/10 04:47:58;;;;;;;;;;;6.30;99.90;;;;;;5056022;28;20020;-69
2022/11/10 04:50:24;;;;;;;;;;;6.30;99.90;;;;;;5055795;28;19948;-69
2022/11/10 04:52:50;;;;;;;;;;;6.30;99.90;;;;;;5055601;28;19908;-69
2022/11/10 04:55:15;;;;;;;;;;;6.30;99.90;;;;;;5054860;28;20365;-69
2022/11/10 04:57:41;;;;;;;;;;;6.30;99.90;;;;;;5055476;28;19917;-69
2022/11/10 05:00:07;;;;;;;;;;;6.30;99.90;;;;;;5037789;28;19916;-69
2022/11/10 05:02:32;;;;;;;;;;;6.30;99.90;;;;;;5036814;28;19919;-69
2022/11/10 05:04:58;;;;;;;;;;;6.30;99.90;;;;;;5038111;28;19912;-70
2022/11/10 05:07:24;;;;;;;;;;;6.30;99.90;;;;;;5054908;28;19921;-69
2022/11/10 05:09:49;;;;;;;;;;;6.30;99.90;;;;;;5055314;28;19966;-69
2022/11/10 05:12:15;;;;;;;;;;;6.30;99.90;;;;;;5055336;28;19921;-69
2022/11/10 05:14:40;;;;;;;;;;;6.30;99.90;;;;;;5037163;28;19919;-70
2022/11/10 05:17:06;;;;;;;;;;;6.30;99.90;;;;;;5054512;28;19917;-69
2022/11/10 05:19:31;;;;;;;;;;;6.30;99.90;;;;;;5055046;28;19927;-69
2022/11/10 05:21:57;;;;;;;;;;;6.30;99.90;;;;;;5054939;28;19913;-69
2022/11/10 05:24:23;;;;;;;;;;;6.30;99.90;;;;;;5055161;28;20011;-69
2022/11/10 05:26:48;;;;;;;;;;;6.30;99.90;;;;;;5054694;28;19951;-69
2022/11/10 05:29:14;;;;;;;;;;;6.30;99.90;;;;;;5055167;28;19960;-69
2022/11/10 05:31:39;;;;;;;;;;;6.30;99.90;;;;;;5054947;28;20015;-69
2022/11/10 05:34:05;;;;;;;;;;;6.30;99.90;;;;;;5055068;28;19962;-69
2022/11/10 05:36:30;;;;;;;;;;;6.30;99.90;;;;;;5054793;28;19922;-69
2022/11/10 05:38:56;;;;;;;;;;;6.30;99.90;;;;;;5054826;28;19913;-69
2022/11/10 05:41:21;;;;;;;;;;;6.30;99.90;;;;;;5054313;28;19935;-69
2022/11/10 05:43:47;;;;;;;;;;;6.30;99.90;;;;;;5054587;28;19913;-70
2022/11/10 05:46:13;;;;;;;;;;;6.40;99.90;;;;;;5054689;28;20093;-70
2022/11/10 05:48:39;;;;;;;;;;;6.40;99.90;;;;;;5054565;28;20403;-70
2022/11/10 05:51:04;;;;;;;;;;;6.30;99.90;;;;;;5054557;28;19913;-70
2022/11/10 05:53:30;;;;;;;;;;;6.30;99.90;;;;;;5055179;28;19956;-69
2022/11/10 05:55:55;;;;;;;;;;;6.30;99.90;;;;;;5054703;28;19913;-70
2022/11/10 05:58:21;;;;;;;;;;;6.40;99.90;;;;;;5054648;28;19920;-70
2022/11/10 06:00:46;;;;;;;;;;;6.30;99.90;;;;;;5054368;28;20438;-70
2022/11/10 06:03:13;;;;;;;;;;;6.40;99.90;;;;;;5054309;28;19912;-70
2022/11/10 06:05:39;;;;;;;;;;;6.40;99.90;;;;;;5054317;28;20292;-70
2022/11/10 06:08:05;;;;;;;;;;;6.40;99.90;;;;;;5054746;28;19923;-70
2022/11/10 06:10:31;;;;;;;;;;;6.40;99.90;;;;;;5054480;28;19909;-70
2022/11/10 06:12:57;;;;;;;;;;;6.40;99.90;;;;;;5053948;28;19917;-70
2022/11/10 06:15:23;;;;;;;;;;;6.40;99.90;;;;;;5054118;28;20258;-69
2022/11/10 06:17:48;;;;;;;;;;;6.40;99.90;;;;;;5053997;28;19913;-69
2022/11/10 06:20:15;;;;;;;;;;;6.40;99.90;;;;;;5054010;28;19916;-69
2022/11/10 06:22:41;;;;;;;;;;;6.40;99.90;;;;;;5054218;28;20262;-69
2022/11/10 06:25:07;;;;;;;;;;;6.40;99.90;;;;;;5053978;28;19909;-68
2022/11/10 06:27:33;;;;;;;;;;;6.40;99.90;;;;;;5053865;28;20011;-68
2022/11/10 06:29:58;;;;;;;;;;;6.40;99.90;;;;;;5054400;28;20408;-69
2022/11/10 06:32:24;;;;;;;;;;;6.40;99.90;;;;;;5053973;28;19956;-69
2022/11/10 06:34:49;;;;;;;;;;;6.40;99.90;;;;;;5053785;28;20365;-69
2022/11/10 06:37:15;;;;;;;;;;;6.30;99.90;;;;;;5053893;28;20361;-68
2022/11/10 06:39:41;;;;;;;;;;;6.40;99.90;;;;;;5054018;28;19912;-69
2022/11/10 06:42:06;;;;;;;;;;;6.40;99.90;;;;;;5053710;28;19913;-69
2022/11/10 06:44:32;;;;;;;;;;;6.40;99.90;;;;;;5053953;28;19958;-69
2022/11/10 06:46:57;;;;;;;;;;;6.30;99.90;;;;;;5053693;28;20003;-69
2022/11/10 06:49:23;;;;;;;;;;;6.40;99.90;;;;;;5053480;28;19923;-69
2022/11/10 06:51:48;;;;;;;;;;;6.30;99.90;;;;;;5053504;28;19916;-69
2022/11/10 06:54:14;;;;;;;;;;;6.30;99.90;;;;;;5053690;28;19920;-69
2022/11/10 06:56:40;;;;;;;;;;;6.30;99.90;;;;;;5053508;28;19913;-69
2022/11/10 06:59:05;;;;;;;;;;;6.30;99.90;;;;;;5035670;28;19913;-69
2022/11/10 07:01:31;;;;;;;;;;;6.30;99.90;;;;;;5053387;28;19999;-69
2022/11/10 07:03:56;;;;;;;;;;;6.30;99.90;;;;;;5053342;28;19912;-69
2022/11/10 07:06:22;;;;;;;;;;;6.30;99.90;;;;;;5053691;28;19959;-69
2022/11/10 07:08:48;;;;;;;;;;;6.30;99.90;;;;;;5053542;28;19917;-69
2022/11/10 07:11:13;;;;;;;;;;;6.30;99.90;;;;;;5053521;28;20019;-69
2022/11/10 07:13:39;;;;;;;;;;;6.30;99.90;;;;;;5053156;28;19955;-70
2022/11/10 07:16:06;;;;;;;;;;;6.30;99.90;;;;;;5053643;28;19912;-69
2022/11/10 07:18:32;;;;;;;;;;;6.30;99.90;;;;;;5053518;28;19963;-69
2022/11/10 07:20:57;;;;;;;;;;;6.30;99.90;;;;;;5053654;28;19948;-69
2022/11/10 07:23:23;;;;;;;;;;;6.40;99.90;;;;;;5053534;28;19962;-69
2022/11/10 07:25:48;;;;;;;;;;;6.40;99.90;;;;;;5053510;28;19909;-69
2022/11/10 07:28:14;;;;;;;;;;;6.40;99.90;;;;;;5035908;28;19921;-69
2022/11/10 07:30:40;;;;;;;;;;;6.50;99.90;;;;;;5035341;28;19913;-69
2022/11/10 07:33:08;;;;;;;;;;;6.50;99.90;;;;;;5053803;28;19913;-69
2022/11/10 07:35:33;;;;;;;;;;;6.50;99.90;;;;;;5053135;28;19920;-69
2022/11/10 07:38:06;;;;;;;;;;;6.50;99.90;;;;;;5053106;28;19917;-69
2022/11/10 07:40:32;;;;;;;;;;;6.50;99.90;;;;;;5053284;28;19909;-69
2022/11/10 07:42:58;;;;;;;;;;;6.50;99.90;;;;;;5035118;28;20015;-69
2022/11/10 07:45:24;;;;;;;;;;;6.50;99.90;;;;;;5053027;28;19919;-69
2022/11/10 07:47:49;;;;;;;;;;;6.50;99.90;;;;;;5053210;28;19925;-69
2022/11/10 07:50:15;;;;;;;;;;;6.50;99.90;;;;;;5052982;28;20003;-69
2022/11/10 07:52:41;;;;;;;;;;;6.50;99.90;;;;;;5052891;28;20358;-69
2022/11/10 07:55:07;;;;;;;;;;;6.50;99.90;;;;;;5052932;28;19940;-69
2022/11/10 07:57:32;;;;;;;;;;;6.60;99.90;;;;;;5052925;28;19913;-69
2022/11/10 07:59:58;;;;;;;;;;;6.60;99.90;;;;;;5053183;28;19908;-69
2022/11/10 08:02:24;;;;;;;;;;;6.60;99.90;;;;;;5053350;28;19948;-69
2022/11/10 08:04:49;;;;;;;;;;;6.60;99.90;;;;;;5054108;28;19951;-69
2022/11/10 08:07:15;;;;;;;;;;;6.70;99.90;;;;;;5056459;28;19915;-69
2022/11/10 08:09:40;;;;;;;;;;;6.70;99.90;;;;;;5056477;28;20337;-69
2022/11/10 08:12:06;;;;;;;;;;;6.70;99.90;;;;;;5038570;28;19921;-69
2022/11/10 08:14:31;;;;;;;;;;;6.70;99.90;;;;;;5056632;28;19913;-69
2022/11/10 08:16:57;;;;;;;;;;;6.70;99.90;;;;;;5056381;28;19948;-69
2022/11/10 08:19:23;;;;;;;;;;;6.70;99.90;;;;;;5056924;28;20292;-69
2022/11/10 08:21:48;;;;;;;;;;;6.70;99.90;;;;;;5056271;28;19917;-69
2022/11/10 08:24:14;;;;;;;;;;;6.80;99.90;;;;;;5056177;28;20304;-69
2022/11/10 08:26:39;;;;;;;;;;;6.80;99.90;;;;;;5038343;28;20297;-69
2022/11/10 08:29:05;;;;;;;;;;;6.80;99.90;;;;;;5056056;28;20431;-69
2022/11/10 08:31:33;;;;;;;;;;;6.80;99.90;;;;;;5056318;28;20427;-69
2022/11/10 08:33:59;;;;;;;;;;;6.90;99.90;;;;;;5055962;28;19913;-69
2022/11/10 08:36:24;;;;;;;;;;;6.90;99.90;;;;;;5056248;28;19919;-69
2022/11/10 08:38:50;;;;;;;;;;;6.90;99.90;;;;;;5055940;28;19913;-69
2022/11/10 08:41:15;;;;;;;;;;;7.00;99.90;;;;;;5056207;28;20023;-69
2022/11/10 08:43:41;;;;;;;;;;;7.00;99.90;;;;;;5055733;28;19912;-69
2022/11/10 08:46:06;;;;;;;;;;;7.00;99.90;;;;;;5055706;28;19916;-69
2022/11/10 08:48:32;;;;;;;;;;;7.00;99.90;;;;;;5055657;28;19917;-69
2022/11/10 08:50:58;;;;;;;;;;;7.10;99.90;;;;;;5055952;28;19927;-69
2022/11/10 08:53:24;;;;;;;;;;;7.10;99.90;;;;;;5055589;28;19917;-69
2022/11/10 08:55:50;;;;;;;;;;;7.10;99.90;;;;;;5055669;28;19919;-69
2022/11/10 08:58:17;;;;;;;;;;;7.20;99.90;;;;;;5037656;28;20000;-69
2022/11/10 09:00:43;;;;;;;;;;;7.20;99.90;;;;;;5055776;28;19909;-69
2022/11/10 09:03:12;;;;;;;;;;;7.20;99.90;;;;;;5055412;28;20421;-69
2022/11/10 09:05:38;;;;;;;;;;;7.30;99.90;;;;;;5055476;28;19913;-69
2022/11/10 09:08:04;;;;;;;;;;;7.30;99.90;;;;;;5055540;28;19923;-69
2022/11/10 09:10:30;;;;;;;;;;;7.30;99.90;;;;;;5055321;28;19909;-69
2022/11/10 09:13:00;;;;;;;;;;;7.30;99.90;;;;;;5055147;28;19956;-69
2022/11/10 09:15:25;;;;;;;;;;;7.40;99.90;;;;;;5055062;28;19955;-69
2022/11/10 09:17:51;;;;;;;;;;;7.40;99.90;;;;;;5054590;28;19955;-69
2022/11/10 09:20:17;;;;;;;;;;;7.50;99.90;;;;;;5055122;28;19909;-69
2022/11/10 09:22:42;;;;;;;;;;;7.50;99.90;;;;;;5055018;28;19913;-69
2022/11/10 09:25:08;;;;;;;;;;;7.50;99.90;;;;;;5037091;28;19959;-69
2022/11/10 09:27:34;;;;;;;;;;;7.60;99.90;;;;;;5054954;28;19920;-69
2022/11/10 09:29:59;;;;;;;;;;;7.50;99.90;;;;;;5055189;28;19948;-69
2022/11/10 09:32:25;;;;;;;;;;;7.60;99.90;;;;;;5037028;28;19994;-69
2022/11/10 09:34:50;;;;;;;;;;;7.60;99.90;;;;;;5037011;28;19916;-69
2022/11/10 09:37:16;;;;;;;;;;;7.60;99.90;;;;;;5037025;28;20331;-70
2022/11/10 09:39:41;;;;;;;;;;;7.70;99.90;;;;;;5054775;28;19913;-69
2022/11/10 09:42:25;;;;;;;;;;;7.70;99.90;;;;;;5054754;28;19912;-69
2022/11/10 09:44:53;;;;;;;;;;;7.70;99.90;;;;;;5055276;28;19952;-69
2022/11/10 09:47:22;;;;;;;;;;;7.80;99.90;;;;;;5054598;28;19991;-69
2022/11/10 09:49:55;;;;;;;;;;;7.80;99.90;;;;;;5054513;28;20388;-69
2022/11/10 09:52:22;;;;;;;;;;;7.90;99.90;;;;;;5054477;28;19908;-69
2022/11/10 09:54:50;;;;;;;;;;;7.90;99.90;;;;;;5054489;28;19909;-69
2022/11/10 09:57:17;;;;;;;;;;;8.00;99.90;;;;;;5054613;28;20010;-69
2022/11/10 09:59:43;;;;;;;;;;;8.10;99.90;;;;;;5054312;28;19908;-69
2022/11/10 10:02:29;;;;;;;;;;;8.20;99.90;;;;;;5054320;28;19909;-70
2022/11/10 10:04:55;;;;;;;;;;;8.30;99.90;;;;;;5054360;28;19908;-70
2022/11/10 10:07:25;;;;;;;;;;;8.50;99.90;;;;;;5054212;28;19908;-70
2022/11/10 10:10:00;;;;;;;;;;;8.60;99.90;;;;;;5054162;28;20327;-70
2022/11/10 10:12:25;;;;;;;;;;;8.80;99.90;;;;;;5054012;28;20351;-70
2022/11/10 10:14:59;;;;;;;;;;;8.90;99.90;;;;;;5054195;28;19955;-70
2022/11/10 10:17:36;;;;;;;;;;;8.90;99.90;;;;;;5054648;28;19916;-70
2022/11/10 10:20:13;;;;;;;;;;;9.00;99.90;;;;;;5054363;28;19909;-70
2022/11/10 10:22:53;;;;;;;;;;;9.10;99.90;;;;;;5054021;28;19916;-69
2022/11/10 10:25:20;;;;;;;;;;;9.20;99.90;;;;;;5055079;28;19909;-69
2022/11/10 10:27:49;;;;;;;;;;;9.20;99.90;;;;;;5053526;28;19913;-70
2022/11/10 10:30:16;;;;;;;;;;;9.30;99.90;;;;;;5053834;28;20386;-69
2022/11/10 10:32:41;;;;;;;;;;;9.20;99.90;;;;;;5053691;28;19909;-69
2022/11/10 10:35:16;;;;;;;;;;;9.30;99.90;;;;;;5053715;28;19969;-70
2022/11/10 10:37:48;;;;;;;;;;;9.30;99.90;;;;;;5053713;28;19908;-70
2022/11/10 10:40:17;;;;;;;;;;;9.30;99.90;;;;;;5035826;28;19917;-70
2022/11/10 10:42:42;;;;;;;;;;;9.30;99.90;;;;;;5053631;28;19916;-69
2022/11/10 10:45:11;;;;;;;;;;;9.30;99.90;;;;;;5053623;28;19999;-70
2022/11/10 10:47:37;;;;;;;;;;;9.30;99.90;;;;;;5053499;28;19957;-70
2022/11/10 10:50:19;;;;;;;;;;;9.30;99.90;;;;;;5054051;28;19913;-70
2022/11/10 10:53:03;;;;;;;;;;;9.40;99.90;;;;;;5053921;28;19909;-69
2022/11/10 10:55:29;;;;;;;;;;;9.40;99.90;;;;;;5053811;28;20004;-70
2022/11/10 10:57:57;;;;;;;;;;;9.40;99.90;;;;;;5053860;28;19941;-70
2022/11/10 11:00:23;;;;;;;;;;;9.50;99.90;;;;;;5053481;28;19923;-70
2022/11/10 11:03:08;;;;;;;;;;;9.60;99.90;;;;;;5053406;28;19912;-70
2022/11/10 11:05:34;;;;;;;;;;;9.70;99.90;;;;;;5022736;28;19913;-67
2022/11/10 11:08:00;;;;;;;;;;;9.80;99.90;;;;;;5053385;28;19923;-67
2022/11/10 11:10:26;;;;;;;;;;;9.80;99.90;;;;;;5053393;28;19955;-67
2022/11/10 11:12:51;;;;;;;;;;;10.00;99.90;;;;;;5053279;28;20328;-67
2022/11/10 11:15:21;;;;;;;;;;;10.10;99.90;;;;;;5053562;28;19963;-67
2022/11/10 11:17:54;;;;;;;;;;;10.20;99.90;;;;;;5053326;28;19959;-67
2022/11/10 11:20:22;;;;;;;;;;;10.40;99.90;;;;;;5053276;28;19908;-67
2022/11/10 11:22:53;;;;;;;;;;;10.50;99.90;;;;;;5053198;28;19913;-67
2022/11/10 11:25:26;;;;;;;;;;;10.60;99.90;;;;;;5053512;28;19916;-67
2022/11/10 11:28:02;;;;;;;;;;;10.70;99.90;;;;;;5053695;28;20273;-67
2022/11/10 11:30:35;;;;;;;;;;;10.90;99.90;;;;;;5053209;28;19936;-67
2022/11/10 11:33:12;;;;;;;;;;;11.00;99.90;;;;;;5053158;28;19931;-67
2022/11/10 11:35:37;;;;;;;;;;;11.00;99.90;;;;;;5053159;28;20377;-67
2022/11/10 11:38:29;;;;;;;;;;;11.10;99.90;;;;;;5053164;28;19916;-67
2022/11/10 11:40:54;;;;;;;;;;;11.10;99.90;;;;;;5056156;28;19912;-67
2022/11/10 11:43:20;;;;;;;;;;;11.30;99.90;;;;;;5056884;28;19916;-67
2022/11/10 11:46:08;;;;;;;;;;;11.40;99.90;;;;;;5056891;28;20008;-67
2022/11/10 11:48:51;;;;;;;;;;;11.50;99.90;;;;;;5057462;28;20258;-67
2022/11/10 11:51:29;;;;;;;;;;;11.60;99.90;;;;;;5057255;28;19950;-67
2022/11/10 11:54:02;;;;;;;;;;;11.70;99.90;;;;;;5056685;28;20016;-67
2022/11/10 11:56:30;;;;;;;;;;;11.80;99.90;;;;;;5057011;28;20281;-67
2022/11/10 11:58:58;;;;;;;;;;;11.90;99.90;;;;;;5056640;28;19909;-67
2022/11/10 12:01:36;;;;;;;;;;;12.00;99.90;;;;;;5056608;28;19913;-67
2022/11/10 12:04:07;;;;;;;;;;;12.00;99.90;;;;;;5056749;28;20332;-67
2022/11/10 12:06:59;;;;;;;;;;;12.10;99.90;;;;;;5056529;28;19912;-67
2022/11/10 12:09:24;;;;;;;;;;;12.20;99.90;;;;;;5053258;28;20276;-67
2022/11/10 12:11:53;;;;;;;;;;;12.20;99.90;;;;;;5056326;28;19909;-68
2022/11/10 12:14:37;;;;;;;;;;;12.30;99.90;;;;;;5056300;28;19966;-67
2022/11/10 12:17:16;;;;;;;;;;;12.30;99.90;;;;;;5056322;28;20431;-67
2022/11/10 12:19:49;;;;;;;;;;;12.40;99.90;;;;;;5056887;28;19913;-67
2022/11/10 12:22:35;;;;;;;;;;;12.50;99.90;;;;;;5056549;28;19909;-67
2022/11/10 12:25:04;;;;;;;;;;;12.50;99.90;;;;;;5056516;28;19909;-67
2022/11/10 12:27:49;;;;;;;;;;;12.50;99.90;;;;;;5056127;28;20003;-67
2022/11/10 12:30:16;;;;;;;;;;;12.50;99.90;;;;;;5056143;28;19909;-67
2022/11/10 12:32:51;;;;;;;;;;;12.60;99.90;;;;;;5055969;28;19913;-67
2022/11/10 12:35:22;;;;;;;;;;;12.60;99.90;;;;;;5055935;28;19909;-67
2022/11/10 12:37:50;;;;;;;;;;;12.70;99.90;;;;;;5055954;28;20019;-67
2022/11/10 12:40:25;;;;;;;;;;;12.80;99.90;;;;;;5056415;28;19917;-67
2022/11/10 12:43:01;;;;;;;;;;;12.80;99.90;;;;;;5055804;28;20366;-67
2022/11/10 12:45:31;;;;;;;;;;;12.90;99.90;;;;;;5055837;28;19909;-67
2022/11/10 12:47:57;;;;;;;;;;;13.00;99.90;;;;;;5055769;28;19958;-67
2022/11/10 12:50:23;;;;;;;;;;;13.20;99.90;;;;;;5055888;28;19991;-67
2022/11/10 12:52:51;;;;;;;;;;;13.20;99.90;;;;;;5055639;28;20377;-67
2022/11/10 12:55:19;;;;;;;;;;;13.20;99.90;;;;;;5055640;28;19909;-67
2022/11/10 12:57:44;;;;;;;;;;;13.20;99.90;;;;;;5055640;28;19916;-67
2022/11/10 13:00:31;;;;;;;;;;;13.20;99.90;;;;;;5055579;28;19919;-67
2022/11/10 13:02:58;;;;;;;;;;;13.20;99.90;;;;;;5055385;28;20388;-67
2022/11/10 13:05:32;;;;;;;;;;;13.40;99.90;;;;;;5055490;28;19999;-67
2022/11/10 13:08:16;;;;;;;;;;;13.40;99.90;;;;;;5055877;28;20407;-67
2022/11/10 13:10:50;;;;;;;;;;;13.40;99.90;;;;;;5055879;28;19931;-67
2022/11/10 13:13:15;;;;;;;;;;;13.50;99.90;;;;;;5055008;28;19944;-67
2022/11/10 13:15:41;;;;;;;;;;;13.60;99.90;;;;;;5037724;28;20272;-67
2022/11/10 13:18:11;;;;;;;;;;;13.70;99.90;;;;;;5055195;28;19915;-67
2022/11/10 13:20:50;;;;;;;;;;;13.70;99.90;;;;;;5055497;28;19909;-67
2022/11/10 13:23:32;;;;;;;;;;;13.70;99.90;;;;;;5055020;28;19962;-67
2022/11/10 13:26:02;;;;;;;;;;;13.70;99.90;;;;;;5054993;28;20008;-67
2022/11/10 13:28:46;;;;;;;;;;;13.70;99.90;;;;;;5055211;28;19936;-67
2022/11/10 13:31:26;;;;;;;;;;;13.70;99.90;;;;;;5055531;28;19940;-67
2022/11/10 13:34:02;;;;;;;;;;;13.70;99.90;;;;;;5055079;28;19998;-67
2022/11/10 13:36:37;;;;;;;;;;;13.60;99.90;;;;;;5054981;28;19909;-67
2022/11/10 13:39:18;;;;;;;;;;;13.60;99.90;;;;;;5054797;28;19909;-67
2022/11/10 13:42:02;;;;;;;;;;;13.50;99.90;;;;;;5054758;28;19908;-67
2022/11/10 13:44:33;;;;;;;;;;;13.40;99.90;;;;;;5054708;28;19909;-67
2022/11/10 13:46:58;;;;;;;;;;;13.30;99.90;;;;;;5055534;28;19909;-67
2022/11/10 13:49:44;;;;;;;;;;;13.20;99.90;;;;;;5054538;28;19916;-67
2022/11/10 13:52:18;;;;;;;;;;;13.10;99.90;;;;;;5043732;28;20302;-67
2022/11/10 13:54:47;;;;;;;;;;;13.00;99.90;;;;;;5054489;28;19912;-67
2022/11/10 13:57:29;;;;;;;;;;;12.90;99.90;;;;;;5054447;28;19948;-67
2022/11/10 13:59:58;;;;;;;;;;;12.80;99.90;;;;;;5054362;28;19909;-67
2022/11/10 14:02:32;;;;;;;;;;;12.70;99.90;;;;;;5053765;28;19916;-67
2022/11/10 14:05:21;;;;;;;;;;;12.70;99.90;;;;;;5054346;28;19908;-67
2022/11/10 14:07:47;;;;;;;;;;;12.60;99.90;;;;;;5025690;28;19919;-67
2022/11/10 14:10:15;;;;;;;;;;;12.60;99.90;;;;;;5054700;28;19963;-67
2022/11/10 14:13:02;;;;;;;;;;;12.50;99.90;;;;;;5053917;28;20290;-67
2022/11/10 14:15:37;;;;;;;;;;;12.50;99.90;;;;;;5054217;28;20003;-67
2022/11/10 14:18:13;;;;;;;;;;;12.40;99.90;;;;;;5054117;28;19954;-67
2022/11/10 14:20:42;;;;;;;;;;;12.40;99.90;;;;;;5054311;28;19915;-67
2022/11/10 14:23:21;;;;;;;;;;;12.30;99.90;;;;;;5053961;28;19909;-67
2022/11/10 14:25:53;;;;;;;;;;;12.30;99.90;;;;;;5054161;28;19908;-67
2022/11/10 14:28:23;;;;;;;;;;;12.20;99.90;;;;;;5053784;28;19913;-67
2022/11/10 14:30:50;;;;;;;;;;;12.20;99.90;;;;;;5050384;28;19913;-67
2022/11/10 14:33:15;;;;;;;;;;;12.10;99.90;;;;;;5051147;28;19916;-68
2022/11/10 14:35:51;;;;;;;;;;;12.00;99.90;;;;;;5052553;28;19909;-67
2022/11/10 14:38:17;;;;;;;;;;;12.00;99.90;;;;;;5052693;28;20358;-67
2022/11/10 14:40:43;;;;;;;;;;;11.90;99.90;;;;;;5053083;28;19956;-67
2022/11/10 14:43:27;;;;;;;;;;;11.80;99.90;;;;;;5053532;28;19952;-67
2022/11/10 14:45:53;;;;;;;;;;;11.80;99.90;;;;;;5052050;28;19913;-69
2022/11/10 14:48:21;;;;;;;;;;;11.70;99.90;;;;;;5033704;28;19917;-68
2022/11/10 14:50:47;;;;;;;;;;;11.60;99.90;;;;;;5051588;28;19909;-68